sensor_id;sensor_type;location;lat;lon;timestamp;P1;durP1;ratioP1;P2;durP2;ratioP2
1204;SDS011;592;48.764;9.174;2022-08-24T00:01:06;7.53;;;5.50;;
1204;SDS011;592;48.764;9.174;2022-08-24T00:03:35;10.10;;;5.57;;
1204;SDS011;592;48.764;9.174;2022-08-24T00:06:04;8.47;;;5.53;;
1204;SDS011;592;48.764;9.174;2022-08-24T00:08:33;8.67;;;6.03;;
1204;SDS011;592;48.764;9.174;2022-08-24T00:11:00;6.70;;;5.30;;
1204;SDS011;592;48.764;9.174;2022-08-24T00:13:28;10.77;;;5.90;;
1204;SDS011;592;48.764;9.174;2022-08-24T00:15:55;9.57;;;5.20;;
1204;SDS011;592;48.764;9.174;2022-08-24T00:18:22;12.50;;;6.13;;
1204;SDS011;592;48.764;9.174;2022-08-24T00:20:50;8.90;;;5.77;;
1204;SDS011;592;48.764;9.174;2022-08-24T00:23:16;7.40;;;5.60;;
1204;SDS011;592;48.764;9.174;2022-08-24T00:25:44;10.90;;;5.80;;
1204;SDS011;592;48.764;9.174;2022-08-24T00:28:11;7.40;;;5.73;;
1204;SDS011;592;48.764;9.174;2022-08-24T00:30:40;10.53;;;6.03;;
1204;SDS011;592;48.764;9.174;2022-08-24T00:33:07;7.30;;;5.40;;
1204;SDS011;592;48.764;9.174;2022-08-24T00:35:34;9.23;;;5.83;;
1204;SDS011;592;48.764;9.174;2022-08-24T00:38:01;8.03;;;5.87;;
1204;SDS011;592;48.764;9.174;2022-08-24T00:40:29;8.33;;;5.60;;
1204;SDS011;592;48.764;9.174;2022-08-24T00:42:59;7.80;;;5.97;;
1204;SDS011;592;48.764;9.174;2022-08-24T00:45:28;9.80;;;6.17;;
1204;SDS011;592;48.764;9.174;2022-08-24T00:47:58;7.87;;;5.57;;
1204;SDS011;592;48.764;9.174;2022-08-24T00:50:28;8.60;;;6.07;;
1204;SDS011;592;48.764;9.174;2022-08-24T00:53:00;8.70;;;5.63;;
1204;SDS011;592;48.764;9.174;2022-08-24T00:55:31;9.27;;;5.80;;
1204;SDS011;592;48.764;9.174;2022-08-24T00:58:02;9.40;;;6.23;;
1204;SDS011;592;48.764;9.174;2022-08-24T01:00:32;11.23;;;5.60;;
1204;SDS011;592;48.764;9.174;2022-08-24T01:03:04;8.07;;;5.40;;
1204;SDS011;592;48.764;9.174;2022-08-24T01:05:32;6.80;;;5.27;;
1204;SDS011;592;48.764;9.174;2022-08-24T01:08:01;8.00;;;5.60;;
1204;SDS011;592;48.764;9.174;2022-08-24T01:10:32;9.43;;;5.80;;
1204;SDS011;592;48.764;9.174;2022-08-24T01:13:03;7.40;;;6.10;;
1204;SDS011;592;48.764;9.174;2022-08-24T01:15:33;9.37;;;6.17;;
1204;SDS011;592;48.764;9.174;2022-08-24T01:18:04;7.43;;;5.73;;
1204;SDS011;592;48.764;9.174;2022-08-24T01:20:52;8.90;;;5.80;;
1204;SDS011;592;48.764;9.174;2022-08-24T01:23:29;7.10;;;5.70;;
1204;SDS011;592;48.764;9.174;2022-08-24T01:26:01;9.83;;;5.43;;
1204;SDS011;592;48.764;9.174;2022-08-24T01:28:29;12.00;;;6.07;;
1204;SDS011;592;48.764;9.174;2022-08-24T01:30:56;7.83;;;5.70;;
1204;SDS011;592;48.764;9.174;2022-08-24T01:33:24;7.37;;;5.80;;
1204;SDS011;592;48.764;9.174;2022-08-24T01:35:53;7.80;;;5.80;;
1204;SDS011;592;48.764;9.174;2022-08-24T01:38:22;7.50;;;5.70;;
1204;SDS011;592;48.764;9.174;2022-08-24T01:40:53;7.93;;;5.93;;
1204;SDS011;592;48.764;9.174;2022-08-24T01:43:23;6.50;;;5.73;;
1204;SDS011;592;48.764;9.174;2022-08-24T01:45:49;8.67;;;5.67;;
1204;SDS011;592;48.764;9.174;2022-08-24T01:48:17;12.30;;;6.30;;
1204;SDS011;592;48.764;9.174;2022-08-24T01:50:45;7.60;;;5.53;;
1204;SDS011;592;48.764;9.174;2022-08-24T01:53:11;8.97;;;5.83;;
1204;SDS011;592;48.764;9.174;2022-08-24T01:55:39;8.60;;;6.13;;
1204;SDS011;592;48.764;9.174;2022-08-24T01:58:10;9.73;;;5.50;;
1204;SDS011;592;48.764;9.174;2022-08-24T02:00:37;8.70;;;6.30;;
1204;SDS011;592;48.764;9.174;2022-08-24T02:03:04;8.17;;;5.97;;
1204;SDS011;592;48.764;9.174;2022-08-24T02:05:31;8.50;;;5.90;;
1204;SDS011;592;48.764;9.174;2022-08-24T02:07:59;10.00;;;6.00;;
1204;SDS011;592;48.764;9.174;2022-08-24T02:10:26;9.57;;;5.77;;
1204;SDS011;592;48.764;9.174;2022-08-24T02:12:53;7.20;;;6.10;;
1204;SDS011;592;48.764;9.174;2022-08-24T02:15:24;8.00;;;5.70;;
1204;SDS011;592;48.764;9.174;2022-08-24T02:17:53;7.90;;;6.13;;
1204;SDS011;592;48.764;9.174;2022-08-24T02:20:21;8.03;;;6.37;;
1204;SDS011;592;48.764;9.174;2022-08-24T02:22:48;8.33;;;5.60;;
1204;SDS011;592;48.764;9.174;2022-08-24T02:25:15;7.27;;;5.50;;
1204;SDS011;592;48.764;9.174;2022-08-24T02:27:43;8.23;;;5.53;;
1204;SDS011;592;48.764;9.174;2022-08-24T02:30:11;8.30;;;6.20;;
1204;SDS011;592;48.764;9.174;2022-08-24T02:32:39;7.17;;;5.40;;
1204;SDS011;592;48.764;9.174;2022-08-24T02:35:06;7.00;;;5.67;;
1204;SDS011;592;48.764;9.174;2022-08-24T02:37:33;6.40;;;5.50;;
1204;SDS011;592;48.764;9.174;2022-08-24T02:40:00;7.10;;;5.67;;
1204;SDS011;592;48.764;9.174;2022-08-24T02:42:27;8.00;;;5.87;;
1204;SDS011;592;48.764;9.174;2022-08-24T02:44:54;8.67;;;5.83;;
1204;SDS011;592;48.764;9.174;2022-08-24T02:47:21;7.53;;;5.70;;
1204;SDS011;592;48.764;9.174;2022-08-24T02:49:49;7.57;;;6.30;;
1204;SDS011;592;48.764;9.174;2022-08-24T02:52:15;6.93;;;5.47;;
1204;SDS011;592;48.764;9.174;2022-08-24T02:54:42;10.33;;;5.90;;
1204;SDS011;592;48.764;9.174;2022-08-24T02:57:09;7.87;;;5.57;;
1204;SDS011;592;48.764;9.174;2022-08-24T02:59:35;8.00;;;5.40;;
1204;SDS011;592;48.764;9.174;2022-08-24T03:02:02;7.37;;;5.67;;
1204;SDS011;592;48.764;9.174;2022-08-24T03:04:30;7.80;;;6.00;;
1204;SDS011;592;48.764;9.174;2022-08-24T03:06:58;7.30;;;5.20;;
1204;SDS011;592;48.764;9.174;2022-08-24T03:09:25;7.17;;;6.03;;
1204;SDS011;592;48.764;9.174;2022-08-24T03:11:51;8.83;;;6.03;;
1204;SDS011;592;48.764;9.174;2022-08-24T03:14:19;7.90;;;6.30;;
1204;SDS011;592;48.764;9.174;2022-08-24T03:16:46;6.80;;;6.10;;
1204;SDS011;592;48.764;9.174;2022-08-24T03:19:12;9.07;;;5.87;;
1204;SDS011;592;48.764;9.174;2022-08-24T03:21:40;7.70;;;5.57;;
1204;SDS011;592;48.764;9.174;2022-08-24T03:24:08;8.37;;;6.37;;
1204;SDS011;592;48.764;9.174;2022-08-24T03:26:35;10.20;;;6.37;;
1204;SDS011;592;48.764;9.174;2022-08-24T03:29:02;8.53;;;5.90;;
1204;SDS011;592;48.764;9.174;2022-08-24T03:31:29;8.60;;;6.40;;
1204;SDS011;592;48.764;9.174;2022-08-24T03:33:56;9.10;;;6.47;;
1204;SDS011;592;48.764;9.174;2022-08-24T03:36:23;7.70;;;6.00;;
1204;SDS011;592;48.764;9.174;2022-08-24T03:38:49;8.00;;;5.33;;
1204;SDS011;592;48.764;9.174;2022-08-24T03:41:18;9.03;;;5.60;;
1204;SDS011;592;48.764;9.174;2022-08-24T03:43:44;7.27;;;5.77;;
1204;SDS011;592;48.764;9.174;2022-08-24T03:46:12;7.87;;;6.00;;
1204;SDS011;592;48.764;9.174;2022-08-24T03:48:41;7.70;;;5.40;;
1204;SDS011;592;48.764;9.174;2022-08-24T03:51:09;6.63;;;5.37;;
1204;SDS011;592;48.764;9.174;2022-08-24T03:53:37;8.23;;;6.60;;
1204;SDS011;592;48.764;9.174;2022-08-24T03:56:04;7.10;;;6.00;;
1204;SDS011;592;48.764;9.174;2022-08-24T03:58:33;8.63;;;6.63;;
1204;SDS011;592;48.764;9.174;2022-08-24T04:01:00;10.03;;;6.17;;
1204;SDS011;592;48.764;9.174;2022-08-24T04:03:27;8.10;;;6.27;;
1204;SDS011;592;48.764;9.174;2022-08-24T04:05:54;8.30;;;6.10;;
1204;SDS011;592;48.764;9.174;2022-08-24T04:08:21;7.90;;;5.90;;
1204;SDS011;592;48.764;9.174;2022-08-24T04:10:48;7.70;;;5.73;;
1204;SDS011;592;48.764;9.174;2022-08-24T04:13:15;8.73;;;5.80;;
1204;SDS011;592;48.764;9.174;2022-08-24T04:15:43;8.80;;;5.70;;
1204;SDS011;592;48.764;9.174;2022-08-24T04:18:10;10.23;;;5.50;;
1204;SDS011;592;48.764;9.174;2022-08-24T04:20:37;9.20;;;6.60;;
1204;SDS011;592;48.764;9.174;2022-08-24T04:23:06;8.40;;;6.07;;
1204;SDS011;592;48.764;9.174;2022-08-24T04:25:39;9.13;;;6.50;;
1204;SDS011;592;48.764;9.174;2022-08-24T04:28:08;12.60;;;7.23;;
1204;SDS011;592;48.764;9.174;2022-08-24T04:30:37;12.30;;;7.80;;
1204;SDS011;592;48.764;9.174;2022-08-24T04:33:07;8.87;;;7.10;;
1204;SDS011;592;48.764;9.174;2022-08-24T04:35:35;10.50;;;8.10;;
1204;SDS011;592;48.764;9.174;2022-08-24T04:38:03;12.37;;;8.10;;
1204;SDS011;592;48.764;9.174;2022-08-24T04:40:30;11.53;;;7.70;;
1204;SDS011;592;48.764;9.174;2022-08-24T04:42:57;12.47;;;8.03;;
1204;SDS011;592;48.764;9.174;2022-08-24T04:45:24;9.60;;;7.17;;
1204;SDS011;592;48.764;9.174;2022-08-24T04:47:51;8.83;;;6.30;;
1204;SDS011;592;48.764;9.174;2022-08-24T04:50:19;12.33;;;7.40;;
1204;SDS011;592;48.764;9.174;2022-08-24T04:52:46;8.13;;;6.47;;
1204;SDS011;592;48.764;9.174;2022-08-24T04:55:13;10.50;;;7.57;;
1204;SDS011;592;48.764;9.174;2022-08-24T04:57:40;10.77;;;7.57;;
1204;SDS011;592;48.764;9.174;2022-08-24T05:00:07;8.53;;;6.57;;
1204;SDS011;592;48.764;9.174;2022-08-24T05:02:35;10.33;;;7.90;;
1204;SDS011;592;48.764;9.174;2022-08-24T05:05:05;10.60;;;8.33;;
1204;SDS011;592;48.764;9.174;2022-08-24T05:07:33;8.93;;;7.77;;
1204;SDS011;592;48.764;9.174;2022-08-24T05:10:00;11.10;;;8.13;;
1204;SDS011;592;48.764;9.174;2022-08-24T05:12:27;10.17;;;8.20;;
1204;SDS011;592;48.764;9.174;2022-08-24T05:14:54;9.37;;;8.10;;
1204;SDS011;592;48.764;9.174;2022-08-24T05:17:21;11.97;;;7.97;;
1204;SDS011;592;48.764;9.174;2022-08-24T05:19:47;9.03;;;7.13;;
1204;SDS011;592;48.764;9.174;2022-08-24T05:22:14;10.40;;;6.67;;
1204;SDS011;592;48.764;9.174;2022-08-24T05:24:43;11.10;;;7.73;;
1204;SDS011;592;48.764;9.174;2022-08-24T05:27:09;10.87;;;7.77;;
1204;SDS011;592;48.764;9.174;2022-08-24T05:29:36;10.20;;;7.40;;
1204;SDS011;592;48.764;9.174;2022-08-24T05:32:03;10.03;;;7.83;;
1204;SDS011;592;48.764;9.174;2022-08-24T05:34:30;8.20;;;7.10;;
1204;SDS011;592;48.764;9.174;2022-08-24T05:36:56;10.47;;;7.47;;
1204;SDS011;592;48.764;9.174;2022-08-24T05:39:23;10.40;;;7.50;;
1204;SDS011;592;48.764;9.174;2022-08-24T05:41:51;10.53;;;7.60;;
1204;SDS011;592;48.764;9.174;2022-08-24T05:44:18;9.80;;;7.53;;
1204;SDS011;592;48.764;9.174;2022-08-24T05:46:45;12.23;;;7.70;;
1204;SDS011;592;48.764;9.174;2022-08-24T05:49:11;17.13;;;7.80;;
1204;SDS011;592;48.764;9.174;2022-08-24T05:51:38;10.43;;;8.47;;
1204;SDS011;592;48.764;9.174;2022-08-24T05:54:06;12.07;;;7.93;;
1204;SDS011;592;48.764;9.174;2022-08-24T05:56:33;11.30;;;7.60;;
1204;SDS011;592;48.764;9.174;2022-08-24T05:59:01;9.50;;;7.17;;
1204;SDS011;592;48.764;9.174;2022-08-24T06:01:28;11.27;;;7.17;;
1204;SDS011;592;48.764;9.174;2022-08-24T06:03:56;10.80;;;7.17;;
1204;SDS011;592;48.764;9.174;2022-08-24T06:06:23;8.73;;;6.93;;
1204;SDS011;592;48.764;9.174;2022-08-24T06:08:52;11.93;;;7.67;;
1204;SDS011;592;48.764;9.174;2022-08-24T06:11:22;9.27;;;6.87;;
1204;SDS011;592;48.764;9.174;2022-08-24T06:13:50;12.43;;;7.00;;
1204;SDS011;592;48.764;9.174;2022-08-24T06:16:19;12.13;;;6.97;;
1204;SDS011;592;48.764;9.174;2022-08-24T06:18:46;8.57;;;7.23;;
1204;SDS011;592;48.764;9.174;2022-08-24T06:21:14;11.60;;;7.80;;
1204;SDS011;592;48.764;9.174;2022-08-24T06:23:44;8.77;;;7.23;;
1204;SDS011;592;48.764;9.174;2022-08-24T06:26:12;14.73;;;7.60;;
1204;SDS011;592;48.764;9.174;2022-08-24T06:28:56;11.03;;;6.93;;
1204;SDS011;592;48.764;9.174;2022-08-24T06:31:25;9.07;;;6.70;;
1204;SDS011;592;48.764;9.174;2022-08-24T06:33:53;10.70;;;6.80;;
1204;SDS011;592;48.764;9.174;2022-08-24T06:36:20;10.93;;;7.47;;
1204;SDS011;592;48.764;9.174;2022-08-24T06:38:48;9.23;;;7.17;;
1204;SDS011;592;48.764;9.174;2022-08-24T06:41:14;8.13;;;6.80;;
1204;SDS011;592;48.764;9.174;2022-08-24T06:43:41;13.23;;;7.37;;
1204;SDS011;592;48.764;9.174;2022-08-24T06:46:08;11.50;;;6.63;;
1204;SDS011;592;48.764;9.174;2022-08-24T06:48:36;11.73;;;7.17;;
1204;SDS011;592;48.764;9.174;2022-08-24T06:51:07;10.50;;;6.83;;
1204;SDS011;592;48.764;9.174;2022-08-24T06:53:35;12.73;;;6.77;;
1204;SDS011;592;48.764;9.174;2022-08-24T06:56:02;8.27;;;6.57;;
1204;SDS011;592;48.764;9.174;2022-08-24T06:58:29;11.80;;;7.57;;
1204;SDS011;592;48.764;9.174;2022-08-24T07:00:56;12.03;;;7.40;;
1204;SDS011;592;48.764;9.174;2022-08-24T07:03:23;9.90;;;6.43;;
1204;SDS011;592;48.764;9.174;2022-08-24T07:05:53;10.30;;;7.10;;
1204;SDS011;592;48.764;9.174;2022-08-24T07:08:21;9.27;;;7.50;;
1204;SDS011;592;48.764;9.174;2022-08-24T07:10:48;9.30;;;6.80;;
1204;SDS011;592;48.764;9.174;2022-08-24T07:13:16;16.03;;;8.30;;
1204;SDS011;592;48.764;9.174;2022-08-24T07:15:43;14.23;;;8.20;;
1204;SDS011;592;48.764;9.174;2022-08-24T07:18:10;11.23;;;8.00;;
1204;SDS011;592;48.764;9.174;2022-08-24T07:20:38;11.43;;;8.03;;
1204;SDS011;592;48.764;9.174;2022-08-24T07:23:07;12.30;;;8.03;;
1204;SDS011;592;48.764;9.174;2022-08-24T07:25:34;14.83;;;8.40;;
1204;SDS011;592;48.764;9.174;2022-08-24T07:28:01;13.33;;;7.80;;
1204;SDS011;592;48.764;9.174;2022-08-24T07:30:28;12.30;;;8.40;;
1204;SDS011;592;48.764;9.174;2022-08-24T07:32:55;14.57;;;9.33;;
1204;SDS011;592;48.764;9.174;2022-08-24T07:35:22;13.17;;;9.10;;
1204;SDS011;592;48.764;9.174;2022-08-24T07:37:50;11.10;;;8.30;;
1204;SDS011;592;48.764;9.174;2022-08-24T07:40:18;13.90;;;9.27;;
1204;SDS011;592;48.764;9.174;2022-08-24T07:42:46;16.17;;;9.53;;
1204;SDS011;592;48.764;9.174;2022-08-24T07:45:13;12.30;;;9.03;;
1204;SDS011;592;48.764;9.174;2022-08-24T07:47:40;10.77;;;7.77;;
1204;SDS011;592;48.764;9.174;2022-08-24T07:50:07;12.30;;;9.20;;
1204;SDS011;592;48.764;9.174;2022-08-24T07:52:35;11.17;;;8.53;;
1204;SDS011;592;48.764;9.174;2022-08-24T07:55:02;11.27;;;9.50;;
1204;SDS011;592;48.764;9.174;2022-08-24T07:57:31;16.27;;;9.90;;
1204;SDS011;592;48.764;9.174;2022-08-24T07:59:57;12.43;;;8.90;;
1204;SDS011;592;48.764;9.174;2022-08-24T08:02:25;12.43;;;9.03;;
1204;SDS011;592;48.764;9.174;2022-08-24T08:04:53;13.17;;;7.40;;
1204;SDS011;592;48.764;9.174;2022-08-24T08:07:19;13.20;;;8.07;;
1204;SDS011;592;48.764;9.174;2022-08-24T08:09:47;9.57;;;7.17;;
1204;SDS011;592;48.764;9.174;2022-08-24T08:12:14;10.47;;;7.63;;
1204;SDS011;592;48.764;9.174;2022-08-24T08:14:42;12.17;;;7.77;;
1204;SDS011;592;48.764;9.174;2022-08-24T08:17:08;11.80;;;7.30;;
1204;SDS011;592;48.764;9.174;2022-08-24T08:19:37;10.00;;;6.90;;
1204;SDS011;592;48.764;9.174;2022-08-24T08:22:05;8.33;;;6.33;;
1204;SDS011;592;48.764;9.174;2022-08-24T08:24:49;8.80;;;5.87;;
1204;SDS011;592;48.764;9.174;2022-08-24T08:27:16;8.10;;;4.60;;
1204;SDS011;592;48.764;9.174;2022-08-24T08:29:46;6.40;;;4.00;;
1204;SDS011;592;48.764;9.174;2022-08-24T08:32:13;8.57;;;4.17;;
1204;SDS011;592;48.764;9.174;2022-08-24T08:34:41;5.97;;;3.90;;
1204;SDS011;592;48.764;9.174;2022-08-24T08:37:08;6.50;;;3.90;;
1204;SDS011;592;48.764;9.174;2022-08-24T08:39:36;6.50;;;3.73;;
1204;SDS011;592;48.764;9.174;2022-08-24T08:45:12;5.60;;;3.80;;
1204;SDS011;592;48.764;9.174;2022-08-24T08:50:57;6.53;;;3.80;;
1204;SDS011;592;48.764;9.174;2022-08-24T08:53:50;6.07;;;4.70;;
1204;SDS011;592;48.764;9.174;2022-08-24T08:56:39;9.10;;;4.10;;
1204;SDS011;592;48.764;9.174;2022-08-24T08:59:17;6.00;;;4.20;;
1204;SDS011;592;48.764;9.174;2022-08-24T09:02:03;6.80;;;4.20;;
1204;SDS011;592;48.764;9.174;2022-08-24T09:04:46;7.90;;;4.37;;
1204;SDS011;592;48.764;9.174;2022-08-24T09:07:30;7.37;;;4.50;;
1204;SDS011;592;48.764;9.174;2022-08-24T09:10:19;8.10;;;4.20;;
1204;SDS011;592;48.764;9.174;2022-08-24T09:13:07;7.53;;;3.93;;
1204;SDS011;592;48.764;9.174;2022-08-24T09:15:51;6.90;;;4.10;;
1204;SDS011;592;48.764;9.174;2022-08-24T09:18:34;6.47;;;4.40;;
1204;SDS011;592;48.764;9.174;2022-08-24T09:21:17;10.47;;;4.30;;
1204;SDS011;592;48.764;9.174;2022-08-24T09:23:58;6.90;;;4.00;;
1204;SDS011;592;48.764;9.174;2022-08-24T09:26:45;6.60;;;4.10;;
1204;SDS011;592;48.764;9.174;2022-08-24T09:29:22;14.53;;;5.27;;
1204;SDS011;592;48.764;9.174;2022-08-24T09:32:00;7.90;;;4.60;;
1204;SDS011;592;48.764;9.174;2022-08-24T09:34:43;6.80;;;4.13;;
1204;SDS011;592;48.764;9.174;2022-08-24T09:37:21;7.23;;;3.80;;
1204;SDS011;592;48.764;9.174;2022-08-24T09:40:02;5.57;;;3.20;;
1204;SDS011;592;48.764;9.174;2022-08-24T09:42:56;6.43;;;3.60;;
1204;SDS011;592;48.764;9.174;2022-08-24T09:45:40;7.00;;;4.20;;
1204;SDS011;592;48.764;9.174;2022-08-24T09:48:38;8.03;;;3.50;;
1204;SDS011;592;48.764;9.174;2022-08-24T09:51:44;6.40;;;3.37;;
1204;SDS011;592;48.764;9.174;2022-08-24T09:54:27;6.23;;;3.60;;
1204;SDS011;592;48.764;9.174;2022-08-24T09:57:19;6.67;;;3.80;;
1204;SDS011;592;48.764;9.174;2022-08-24T10:00:07;9.20;;;4.03;;
1204;SDS011;592;48.764;9.174;2022-08-24T10:02:46;5.70;;;3.67;;
1204;SDS011;592;48.764;9.174;2022-08-24T10:05:22;7.63;;;3.30;;
1204;SDS011;592;48.764;9.174;2022-08-24T10:07:59;6.20;;;3.37;;
1204;SDS011;592;48.764;9.174;2022-08-24T10:10:43;5.60;;;3.10;;
1204;SDS011;592;48.764;9.174;2022-08-24T10:13:17;4.83;;;3.13;;
1204;SDS011;592;48.764;9.174;2022-08-24T10:15:54;5.83;;;3.20;;
1204;SDS011;592;48.764;9.174;2022-08-24T10:18:38;6.03;;;3.50;;
1204;SDS011;592;48.764;9.174;2022-08-24T10:21:23;6.00;;;3.30;;
1204;SDS011;592;48.764;9.174;2022-08-24T10:24:13;5.40;;;3.50;;
1204;SDS011;592;48.764;9.174;2022-08-24T10:26:55;5.10;;;3.10;;
1204;SDS011;592;48.764;9.174;2022-08-24T10:29:35;5.47;;;3.20;;
1204;SDS011;592;48.764;9.174;2022-08-24T10:32:13;6.60;;;3.40;;
1204;SDS011;592;48.764;9.174;2022-08-24T10:34:54;5.23;;;3.23;;
1204;SDS011;592;48.764;9.174;2022-08-24T10:37:42;8.03;;;4.17;;
1204;SDS011;592;48.764;9.174;2022-08-24T10:40:45;4.70;;;3.40;;
1204;SDS011;592;48.764;9.174;2022-08-24T10:43:32;6.30;;;3.50;;
1204;SDS011;592;48.764;9.174;2022-08-24T10:46:21;7.60;;;3.80;;
1204;SDS011;592;48.764;9.174;2022-08-24T10:49:12;6.23;;;3.77;;
1204;SDS011;592;48.764;9.174;2022-08-24T10:52:11;6.30;;;3.50;;
1204;SDS011;592;48.764;9.174;2022-08-24T10:54:56;10.57;;;3.70;;
1204;SDS011;592;48.764;9.174;2022-08-24T10:57:41;7.70;;;3.70;;
1204;SDS011;592;48.764;9.174;2022-08-24T11:00:18;7.73;;;3.60;;
1204;SDS011;592;48.764;9.174;2022-08-24T11:02:46;5.40;;;3.60;;
1204;SDS011;592;48.764;9.174;2022-08-24T11:05:15;5.23;;;3.50;;
1204;SDS011;592;48.764;9.174;2022-08-24T11:07:54;10.63;;;3.90;;
1204;SDS011;592;48.764;9.174;2022-08-24T11:10:24;6.20;;;4.07;;
1204;SDS011;592;48.764;9.174;2022-08-24T11:12:53;5.47;;;3.43;;
1204;SDS011;592;48.764;9.174;2022-08-24T11:15:21;5.83;;;3.83;;
1204;SDS011;592;48.764;9.174;2022-08-24T11:17:52;4.90;;;3.40;;
1204;SDS011;592;48.764;9.174;2022-08-24T11:20:24;6.67;;;3.50;;
1204;SDS011;592;48.764;9.174;2022-08-24T11:22:57;6.17;;;3.63;;
1204;SDS011;592;48.764;9.174;2022-08-24T11:25:32;4.70;;;3.37;;
1204;SDS011;592;48.764;9.174;2022-08-24T11:28:03;9.10;;;3.47;;
1204;SDS011;592;48.764;9.174;2022-08-24T11:30:33;5.90;;;3.40;;
1204;SDS011;592;48.764;9.174;2022-08-24T11:33:04;5.93;;;3.77;;
1204;SDS011;592;48.764;9.174;2022-08-24T11:35:48;6.40;;;3.50;;
1204;SDS011;592;48.764;9.174;2022-08-24T11:38:16;6.03;;;3.83;;
1204;SDS011;592;48.764;9.174;2022-08-24T11:40:46;16.03;;;3.67;;
1204;SDS011;592;48.764;9.174;2022-08-24T11:43:20;5.47;;;3.47;;
1204;SDS011;592;48.764;9.174;2022-08-24T11:46:01;5.87;;;3.50;;
1204;SDS011;592;48.764;9.174;2022-08-24T11:48:38;5.63;;;2.90;;
1204;SDS011;592;48.764;9.174;2022-08-24T11:51:13;6.57;;;3.47;;
1204;SDS011;592;48.764;9.174;2022-08-24T11:53:51;4.50;;;2.80;;
1204;SDS011;592;48.764;9.174;2022-08-24T11:56:25;4.10;;;2.40;;
1204;SDS011;592;48.764;9.174;2022-08-24T11:58:59;4.50;;;2.60;;
1204;SDS011;592;48.764;9.174;2022-08-24T12:01:37;4.37;;;2.63;;
1204;SDS011;592;48.764;9.174;2022-08-24T12:04:21;5.00;;;3.30;;
1204;SDS011;592;48.764;9.174;2022-08-24T12:07:01;5.13;;;3.03;;
1204;SDS011;592;48.764;9.174;2022-08-24T12:09:40;5.37;;;2.93;;
1204;SDS011;592;48.764;9.174;2022-08-24T12:12:17;7.10;;;3.00;;
1204;SDS011;592;48.764;9.174;2022-08-24T12:14:52;9.87;;;2.90;;
1204;SDS011;592;48.764;9.174;2022-08-24T12:17:27;5.87;;;2.93;;
1204;SDS011;592;48.764;9.174;2022-08-24T12:19:59;5.67;;;2.67;;
1204;SDS011;592;48.764;9.174;2022-08-24T12:22:36;4.47;;;2.67;;
1204;SDS011;592;48.764;9.174;2022-08-24T12:25:07;5.67;;;2.90;;
1204;SDS011;592;48.764;9.174;2022-08-24T12:27:56;6.20;;;2.90;;
1204;SDS011;592;48.764;9.174;2022-08-24T12:30:24;5.03;;;3.07;;
1204;SDS011;592;48.764;9.174;2022-08-24T12:32:53;11.40;;;3.20;;
1204;SDS011;592;48.764;9.174;2022-08-24T12:35:25;5.77;;;3.17;;
1204;SDS011;592;48.764;9.174;2022-08-24T12:37:56;6.17;;;2.87;;
1204;SDS011;592;48.764;9.174;2022-08-24T12:40:28;4.93;;;3.20;;
1204;SDS011;592;48.764;9.174;2022-08-24T12:42:59;5.83;;;3.00;;
1204;SDS011;592;48.764;9.174;2022-08-24T12:45:30;7.80;;;3.03;;
1204;SDS011;592;48.764;9.174;2022-08-24T12:47:58;5.80;;;2.60;;
1204;SDS011;592;48.764;9.174;2022-08-24T12:50:31;5.40;;;2.90;;
1204;SDS011;592;48.764;9.174;2022-08-24T12:53:12;5.40;;;2.73;;
1204;SDS011;592;48.764;9.174;2022-08-24T12:55:56;4.60;;;2.60;;
1204;SDS011;592;48.764;9.174;2022-08-24T12:58:50;6.93;;;2.80;;
1204;SDS011;592;48.764;9.174;2022-08-24T13:01:23;4.50;;;2.67;;
1204;SDS011;592;48.764;9.174;2022-08-24T13:04:10;5.27;;;3.10;;
1204;SDS011;592;48.764;9.174;2022-08-24T13:06:42;9.73;;;2.60;;
1204;SDS011;592;48.764;9.174;2022-08-24T13:09:14;6.80;;;3.00;;
1204;SDS011;592;48.764;9.174;2022-08-24T13:11:52;5.70;;;2.70;;
1204;SDS011;592;48.764;9.174;2022-08-24T13:14:21;4.37;;;2.60;;
1204;SDS011;592;48.764;9.174;2022-08-24T13:16:51;4.60;;;2.63;;
1204;SDS011;592;48.764;9.174;2022-08-24T13:19:34;5.60;;;2.77;;
1204;SDS011;592;48.764;9.174;2022-08-24T13:25:17;4.40;;;2.70;;
1204;SDS011;592;48.764;9.174;2022-08-24T13:31:02;4.53;;;2.70;;
1204;SDS011;592;48.764;9.174;2022-08-24T13:33:40;4.10;;;2.40;;
1204;SDS011;592;48.764;9.174;2022-08-24T13:39:08;4.63;;;2.43;;
1204;SDS011;592;48.764;9.174;2022-08-24T13:41:46;7.10;;;2.60;;
1204;SDS011;592;48.764;9.174;2022-08-24T13:44:21;4.83;;;2.43;;
1204;SDS011;592;48.764;9.174;2022-08-24T13:46:58;5.37;;;2.80;;
1204;SDS011;592;48.764;9.174;2022-08-24T13:49:38;4.50;;;3.00;;
1204;SDS011;592;48.764;9.174;2022-08-24T13:52:18;4.17;;;2.47;;
1204;SDS011;592;48.764;9.174;2022-08-24T13:54:58;4.40;;;2.90;;
1204;SDS011;592;48.764;9.174;2022-08-24T13:57:37;6.07;;;3.30;;
1204;SDS011;592;48.764;9.174;2022-08-24T14:00:15;4.30;;;2.60;;
1204;SDS011;592;48.764;9.174;2022-08-24T14:03:07;4.90;;;2.80;;
1204;SDS011;592;48.764;9.174;2022-08-24T14:05:55;5.57;;;2.80;;
1204;SDS011;592;48.764;9.174;2022-08-24T14:08:35;4.93;;;2.90;;
1204;SDS011;592;48.764;9.174;2022-08-24T14:11:11;5.53;;;2.83;;
1204;SDS011;592;48.764;9.174;2022-08-24T14:13:51;4.73;;;3.23;;
1204;SDS011;592;48.764;9.174;2022-08-24T14:16:33;5.30;;;2.80;;
1204;SDS011;592;48.764;9.174;2022-08-24T14:19:24;4.10;;;2.63;;
1204;SDS011;592;48.764;9.174;2022-08-24T14:22:00;5.17;;;2.80;;
1204;SDS011;592;48.764;9.174;2022-08-24T14:24:33;4.40;;;2.73;;
1204;SDS011;592;48.764;9.174;2022-08-24T14:27:05;5.13;;;3.00;;
1204;SDS011;592;48.764;9.174;2022-08-24T14:29:43;4.50;;;2.77;;
1204;SDS011;592;48.764;9.174;2022-08-24T14:35:16;5.33;;;2.67;;
1204;SDS011;592;48.764;9.174;2022-08-24T14:38:23;5.43;;;2.80;;
1204;SDS011;592;48.764;9.174;2022-08-24T14:41:13;4.57;;;2.73;;
1204;SDS011;592;48.764;9.174;2022-08-24T14:43:52;5.07;;;2.80;;
1204;SDS011;592;48.764;9.174;2022-08-24T14:46:47;4.50;;;2.97;;
1204;SDS011;592;48.764;9.174;2022-08-24T14:49:20;4.70;;;3.03;;
1204;SDS011;592;48.764;9.174;2022-08-24T14:51:57;5.17;;;3.20;;
1204;SDS011;592;48.764;9.174;2022-08-24T14:54:59;4.20;;;2.70;;
1204;SDS011;592;48.764;9.174;2022-08-24T14:57:48;4.60;;;3.30;;
1204;SDS011;592;48.764;9.174;2022-08-24T15:00:24;6.10;;;3.30;;
1204;SDS011;592;48.764;9.174;2022-08-24T15:05:42;4.90;;;3.00;;
1204;SDS011;592;48.764;9.174;2022-08-24T15:08:26;4.40;;;2.90;;
1204;SDS011;592;48.764;9.174;2022-08-24T15:10:58;5.27;;;3.00;;
1204;SDS011;592;48.764;9.174;2022-08-24T15:13:35;5.63;;;3.63;;
1204;SDS011;592;48.764;9.174;2022-08-24T15:16:06;6.90;;;3.30;;
1204;SDS011;592;48.764;9.174;2022-08-24T15:18:39;5.60;;;3.07;;
1204;SDS011;592;48.764;9.174;2022-08-24T15:21:10;6.10;;;3.40;;
1204;SDS011;592;48.764;9.174;2022-08-24T15:23:51;6.87;;;3.17;;
1204;SDS011;592;48.764;9.174;2022-08-24T15:26:28;6.57;;;3.50;;
1204;SDS011;592;48.764;9.174;2022-08-24T15:29:07;6.30;;;3.87;;
1204;SDS011;592;48.764;9.174;2022-08-24T15:31:39;4.63;;;3.20;;
1204;SDS011;592;48.764;9.174;2022-08-24T15:34:07;6.30;;;3.50;;
1204;SDS011;592;48.764;9.174;2022-08-24T15:36:34;5.90;;;3.57;;
1204;SDS011;592;48.764;9.174;2022-08-24T15:39:01;6.77;;;3.70;;
1204;SDS011;592;48.764;9.174;2022-08-24T15:41:32;4.50;;;3.20;;
1204;SDS011;592;48.764;9.174;2022-08-24T15:44:01;5.63;;;3.63;;
1204;SDS011;592;48.764;9.174;2022-08-24T15:46:31;5.73;;;3.90;;
1204;SDS011;592;48.764;9.174;2022-08-24T15:49:02;7.07;;;3.87;;
1204;SDS011;592;48.764;9.174;2022-08-24T15:51:35;5.30;;;3.87;;
1204;SDS011;592;48.764;9.174;2022-08-24T15:54:13;7.50;;;3.23;;
1204;SDS011;592;48.764;9.174;2022-08-24T15:56:55;7.40;;;3.40;;
1204;SDS011;592;48.764;9.174;2022-08-24T15:59:26;5.07;;;3.40;;
1204;SDS011;592;48.764;9.174;2022-08-24T16:01:55;10.87;;;3.83;;
1204;SDS011;592;48.764;9.174;2022-08-24T16:05:00;11.50;;;3.63;;
1204;SDS011;592;48.764;9.174;2022-08-24T16:10:28;15.20;;;3.90;;
1204;SDS011;592;48.764;9.174;2022-08-24T16:13:05;8.63;;;3.50;;
1204;SDS011;592;48.764;9.174;2022-08-24T16:15:34;13.03;;;3.90;;
1204;SDS011;592;48.764;9.174;2022-08-24T16:18:11;8.57;;;3.40;;
1204;SDS011;592;48.764;9.174;2022-08-24T16:20:38;5.50;;;3.40;;
1204;SDS011;592;48.764;9.174;2022-08-24T16:23:10;9.30;;;3.13;;
1204;SDS011;592;48.764;9.174;2022-08-24T16:25:45;5.27;;;3.00;;